sensor_id;sensor_type;location;lat;lon;timestamp;P1;durP1;ratioP1;P2;durP2;ratioP2
37267;SDS011;23154;52.542;13.362;2023-04-28T00:01:58;16.73;;;4.47;;
37267;SDS011;23154;52.542;13.362;2023-04-28T00:04:24;14.40;;;3.88;;
37267;SDS011;23154;52.542;13.362;2023-04-28T00:06:50;14.20;;;4.38;;
37267;SDS011;23154;52.542;13.362;2023-04-28T00:09:16;14.10;;;3.78;;
37267;SDS011;23154;52.542;13.362;2023-04-28T00:11:45;17.17;;;4.18;;
37267;SDS011;23154;52.542;13.362;2023-04-28T00:14:12;16.27;;;3.30;;
37267;SDS011;23154;52.542;13.362;2023-04-28T00:16:38;14.32;;;4.00;;
37267;SDS011;23154;52.542;13.362;2023-04-28T00:19:04;14.77;;;3.83;;
37267;SDS011;23154;52.542;13.362;2023-04-28T00:21:31;12.57;;;3.47;;
37267;SDS011;23154;52.542;13.362;2023-04-28T00:23:58;14.35;;;3.90;;
37267;SDS011;23154;52.542;13.362;2023-04-28T00:26:24;13.68;;;3.40;;
37267;SDS011;23154;52.542;13.362;2023-04-28T00:28:50;16.20;;;3.70;;
37267;SDS011;23154;52.542;13.362;2023-04-28T00:31:16;11.77;;;3.55;;
37267;SDS011;23154;52.542;13.362;2023-04-28T00:33:42;12.00;;;3.63;;
37267;SDS011;23154;52.542;13.362;2023-04-28T00:36:08;11.55;;;3.50;;
37267;SDS011;23154;52.542;13.362;2023-04-28T00:38:35;14.93;;;3.50;;
37267;SDS011;23154;52.542;13.362;2023-04-28T00:41:01;9.70;;;3.30;;
37267;SDS011;23154;52.542;13.362;2023-04-28T00:43:27;12.60;;;3.20;;
37267;SDS011;23154;52.542;13.362;2023-04-28T00:45:53;10.65;;;3.25;;
37267;SDS011;23154;52.542;13.362;2023-04-28T00:48:20;11.35;;;3.03;;
37267;SDS011;23154;52.542;13.362;2023-04-28T00:50:48;11.70;;;3.33;;
37267;SDS011;23154;52.542;13.362;2023-04-28T00:53:14;10.25;;;2.85;;
37267;SDS011;23154;52.542;13.362;2023-04-28T00:55:40;12.15;;;3.88;;
37267;SDS011;23154;52.542;13.362;2023-04-28T00:58:06;9.50;;;2.63;;
37267;SDS011;23154;52.542;13.362;2023-04-28T01:00:33;11.30;;;3.08;;
37267;SDS011;23154;52.542;13.362;2023-04-28T01:02:59;9.82;;;2.60;;
37267;SDS011;23154;52.542;13.362;2023-04-28T01:05:25;6.45;;;2.63;;
37267;SDS011;23154;52.542;13.362;2023-04-28T01:07:52;8.27;;;2.55;;
37267;SDS011;23154;52.542;13.362;2023-04-28T01:10:18;10.82;;;3.10;;
37267;SDS011;23154;52.542;13.362;2023-04-28T01:12:45;11.55;;;2.95;;
37267;SDS011;23154;52.542;13.362;2023-04-28T01:15:19;7.10;;;2.67;;
37267;SDS011;23154;52.542;13.362;2023-04-28T01:17:46;7.70;;;3.15;;
37267;SDS011;23154;52.542;13.362;2023-04-28T01:20:12;8.07;;;2.58;;
37267;SDS011;23154;52.542;13.362;2023-04-28T01:22:38;7.13;;;2.42;;
37267;SDS011;23154;52.542;13.362;2023-04-28T01:25:04;10.82;;;3.05;;
37267;SDS011;23154;52.542;13.362;2023-04-28T01:27:30;12.30;;;3.17;;
37267;SDS011;23154;52.542;13.362;2023-04-28T01:29:56;10.60;;;3.25;;
37267;SDS011;23154;52.542;13.362;2023-04-28T01:32:22;11.75;;;3.65;;
37267;SDS011;23154;52.542;13.362;2023-04-28T01:34:48;13.93;;;3.28;;
37267;SDS011;23154;52.542;13.362;2023-04-28T01:37:15;10.90;;;3.30;;
37267;SDS011;23154;52.542;13.362;2023-04-28T01:39:41;17.35;;;4.13;;
37267;SDS011;23154;52.542;13.362;2023-04-28T01:42:07;12.00;;;3.50;;
37267;SDS011;23154;52.542;13.362;2023-04-28T01:44:33;13.38;;;3.72;;
37267;SDS011;23154;52.542;13.362;2023-04-28T01:46:59;13.48;;;3.75;;
37267;SDS011;23154;52.542;13.362;2023-04-28T01:49:25;16.75;;;4.05;;
37267;SDS011;23154;52.542;13.362;2023-04-28T01:51:51;13.02;;;4.07;;
37267;SDS011;23154;52.542;13.362;2023-04-28T01:54:18;11.63;;;3.42;;
37267;SDS011;23154;52.542;13.362;2023-04-28T01:56:44;10.02;;;3.35;;
37267;SDS011;23154;52.542;13.362;2023-04-28T01:59:10;11.00;;;3.47;;
37267;SDS011;23154;52.542;13.362;2023-04-28T02:01:36;12.50;;;3.53;;
37267;SDS011;23154;52.542;13.362;2023-04-28T02:04:02;10.88;;;3.30;;
37267;SDS011;23154;52.542;13.362;2023-04-28T02:06:27;12.20;;;3.40;;
37267;SDS011;23154;52.542;13.362;2023-04-28T02:08:54;15.93;;;4.18;;
37267;SDS011;23154;52.542;13.362;2023-04-28T02:11:20;12.88;;;3.47;;
37267;SDS011;23154;52.542;13.362;2023-04-28T02:13:45;13.10;;;3.83;;
37267;SDS011;23154;52.542;13.362;2023-04-28T02:16:12;12.18;;;3.55;;
37267;SDS011;23154;52.542;13.362;2023-04-28T02:18:38;10.38;;;3.45;;
37267;SDS011;23154;52.542;13.362;2023-04-28T02:21:10;14.10;;;3.65;;
37267;SDS011;23154;52.542;13.362;2023-04-28T02:23:36;10.90;;;4.35;;
37267;SDS011;23154;52.542;13.362;2023-04-28T02:26:03;13.02;;;3.47;;
37267;SDS011;23154;52.542;13.362;2023-04-28T02:28:29;10.02;;;3.35;;
37267;SDS011;23154;52.542;13.362;2023-04-28T02:31:08;9.57;;;3.25;;
37267;SDS011;23154;52.542;13.362;2023-04-28T02:33:34;15.30;;;4.05;;
37267;SDS011;23154;52.542;13.362;2023-04-28T02:36:01;10.05;;;3.40;;
37267;SDS011;23154;52.542;13.362;2023-04-28T02:38:27;11.23;;;3.58;;
37267;SDS011;23154;52.542;13.362;2023-04-28T02:41:00;12.10;;;3.58;;
37267;SDS011;23154;52.542;13.362;2023-04-28T02:43:27;11.00;;;3.40;;
37267;SDS011;23154;52.542;13.362;2023-04-28T02:45:53;13.30;;;3.50;;
37267;SDS011;23154;52.542;13.362;2023-04-28T02:48:19;13.88;;;3.83;;
37267;SDS011;23154;52.542;13.362;2023-04-28T02:50:45;12.23;;;3.20;;
37267;SDS011;23154;52.542;13.362;2023-04-28T02:53:11;11.93;;;3.08;;
37267;SDS011;23154;52.542;13.362;2023-04-28T02:55:37;11.52;;;3.30;;
37267;SDS011;23154;52.542;13.362;2023-04-28T02:58:03;13.35;;;3.28;;
37267;SDS011;23154;52.542;13.362;2023-04-28T03:00:30;9.18;;;3.25;;
37267;SDS011;23154;52.542;13.362;2023-04-28T03:02:56;12.68;;;3.58;;
37267;SDS011;23154;52.542;13.362;2023-04-28T03:05:22;11.70;;;3.58;;
37267;SDS011;23154;52.542;13.362;2023-04-28T03:07:48;13.20;;;3.85;;
37267;SDS011;23154;52.542;13.362;2023-04-28T03:10:14;10.68;;;3.25;;
37267;SDS011;23154;52.542;13.362;2023-04-28T03:12:40;13.52;;;3.95;;
37267;SDS011;23154;52.542;13.362;2023-04-28T03:15:06;10.50;;;3.28;;
37267;SDS011;23154;52.542;13.362;2023-04-28T03:17:33;9.45;;;3.38;;
37267;SDS011;23154;52.542;13.362;2023-04-28T03:20:00;11.23;;;2.97;;
37267;SDS011;23154;52.542;13.362;2023-04-28T03:22:27;13.07;;;3.50;;
37267;SDS011;23154;52.542;13.362;2023-04-28T03:24:53;11.13;;;3.38;;
37267;SDS011;23154;52.542;13.362;2023-04-28T03:27:19;10.63;;;3.10;;
37267;SDS011;23154;52.542;13.362;2023-04-28T03:29:45;11.93;;;3.63;;
37267;SDS011;23154;52.542;13.362;2023-04-28T03:32:11;10.23;;;3.30;;
37267;SDS011;23154;52.542;13.362;2023-04-28T03:34:37;10.05;;;2.90;;
37267;SDS011;23154;52.542;13.362;2023-04-28T03:37:03;10.10;;;3.63;;
37267;SDS011;23154;52.542;13.362;2023-04-28T03:39:29;10.98;;;3.28;;
37267;SDS011;23154;52.542;13.362;2023-04-28T03:41:55;10.88;;;3.70;;
37267;SDS011;23154;52.542;13.362;2023-04-28T03:44:21;13.48;;;3.45;;
37267;SDS011;23154;52.542;13.362;2023-04-28T03:46:47;10.38;;;3.30;;
37267;SDS011;23154;52.542;13.362;2023-04-28T03:49:13;10.98;;;3.05;;
37267;SDS011;23154;52.542;13.362;2023-04-28T03:51:40;10.10;;;3.28;;
37267;SDS011;23154;52.542;13.362;2023-04-28T03:54:06;10.75;;;3.58;;
37267;SDS011;23154;52.542;13.362;2023-04-28T03:56:32;11.00;;;3.38;;
37267;SDS011;23154;52.542;13.362;2023-04-28T03:58:59;12.38;;;3.33;;
37267;SDS011;23154;52.542;13.362;2023-04-28T04:01:25;11.38;;;3.17;;
37267;SDS011;23154;52.542;13.362;2023-04-28T04:03:51;14.00;;;4.00;;
37267;SDS011;23154;52.542;13.362;2023-04-28T04:06:17;10.68;;;3.15;;
37267;SDS011;23154;52.542;13.362;2023-04-28T04:08:44;10.52;;;3.53;;
37267;SDS011;23154;52.542;13.362;2023-04-28T04:11:10;10.77;;;3.20;;
37267;SDS011;23154;52.542;13.362;2023-04-28T04:13:36;12.90;;;3.63;;
37267;SDS011;23154;52.542;13.362;2023-04-28T04:16:02;13.88;;;3.85;;
37267;SDS011;23154;52.542;13.362;2023-04-28T04:18:28;14.70;;;3.67;;
37267;SDS011;23154;52.542;13.362;2023-04-28T04:20:55;9.70;;;3.13;;
37267;SDS011;23154;52.542;13.362;2023-04-28T04:23:21;8.55;;;3.13;;
37267;SDS011;23154;52.542;13.362;2023-04-28T04:25:47;10.73;;;3.30;;
37267;SDS011;23154;52.542;13.362;2023-04-28T04:28:14;11.15;;;3.65;;
37267;SDS011;23154;52.542;13.362;2023-04-28T04:30:40;11.35;;;3.05;;
37267;SDS011;23154;52.542;13.362;2023-04-28T04:33:06;14.32;;;4.18;;
37267;SDS011;23154;52.542;13.362;2023-04-28T04:35:32;13.27;;;3.72;;
37267;SDS011;23154;52.542;13.362;2023-04-28T04:37:59;12.13;;;3.20;;
37267;SDS011;23154;52.542;13.362;2023-04-28T04:40:25;10.63;;;3.25;;
37267;SDS011;23154;52.542;13.362;2023-04-28T04:42:51;12.23;;;3.10;;
37267;SDS011;23154;52.542;13.362;2023-04-28T04:45:17;10.43;;;3.42;;
37267;SDS011;23154;52.542;13.362;2023-04-28T04:47:43;16.63;;;4.07;;
37267;SDS011;23154;52.542;13.362;2023-04-28T04:50:10;11.45;;;3.17;;
37267;SDS011;23154;52.542;13.362;2023-04-28T04:52:36;11.32;;;3.38;;
37267;SDS011;23154;52.542;13.362;2023-04-28T04:55:02;12.82;;;3.15;;
37267;SDS011;23154;52.542;13.362;2023-04-28T04:57:28;9.98;;;3.25;;
37267;SDS011;23154;52.542;13.362;2023-04-28T04:59:54;8.68;;;3.13;;
37267;SDS011;23154;52.542;13.362;2023-04-28T05:02:20;8.40;;;2.80;;
37267;SDS011;23154;52.542;13.362;2023-04-28T05:04:46;10.52;;;3.42;;
37267;SDS011;23154;52.542;13.362;2023-04-28T05:07:12;12.60;;;3.10;;
37267;SDS011;23154;52.542;13.362;2023-04-28T05:09:38;13.45;;;3.42;;
37267;SDS011;23154;52.542;13.362;2023-04-28T05:12:05;9.88;;;3.17;;
37267;SDS011;23154;52.542;13.362;2023-04-28T05:14:31;14.10;;;3.60;;
37267;SDS011;23154;52.542;13.362;2023-04-28T05:16:57;13.73;;;3.53;;
37267;SDS011;23154;52.542;13.362;2023-04-28T05:19:23;11.38;;;3.35;;
37267;SDS011;23154;52.542;13.362;2023-04-28T05:21:49;13.00;;;3.65;;
37267;SDS011;23154;52.542;13.362;2023-04-28T05:24:19;8.43;;;3.00;;
37267;SDS011;23154;52.542;13.362;2023-04-28T05:26:47;12.13;;;3.65;;
37267;SDS011;23154;52.542;13.362;2023-04-28T05:29:13;10.15;;;3.15;;
37267;SDS011;23154;52.542;13.362;2023-04-28T05:31:39;11.77;;;3.30;;
37267;SDS011;23154;52.542;13.362;2023-04-28T05:34:06;11.43;;;3.03;;
37267;SDS011;23154;52.542;13.362;2023-04-28T05:36:31;12.02;;;3.58;;
37267;SDS011;23154;52.542;13.362;2023-04-28T05:38:58;10.77;;;3.88;;
37267;SDS011;23154;52.542;13.362;2023-04-28T05:41:24;13.38;;;3.40;;
37267;SDS011;23154;52.542;13.362;2023-04-28T05:43:50;14.75;;;3.70;;
37267;SDS011;23154;52.542;13.362;2023-04-28T05:46:16;13.57;;;3.88;;
37267;SDS011;23154;52.542;13.362;2023-04-28T05:48:42;11.18;;;3.35;;
37267;SDS011;23154;52.542;13.362;2023-04-28T05:51:09;10.05;;;2.92;;
37267;SDS011;23154;52.542;13.362;2023-04-28T05:53:35;8.98;;;3.00;;
37267;SDS011;23154;52.542;13.362;2023-04-28T05:56:02;9.55;;;2.88;;
37267;SDS011;23154;52.542;13.362;2023-04-28T05:58:28;12.00;;;3.13;;
37267;SDS011;23154;52.542;13.362;2023-04-28T06:00:55;13.27;;;3.53;;
37267;SDS011;23154;52.542;13.362;2023-04-28T06:03:22;11.82;;;3.40;;
37267;SDS011;23154;52.542;13.362;2023-04-28T06:05:48;7.50;;;2.75;;
37267;SDS011;23154;52.542;13.362;2023-04-28T06:08:14;8.52;;;2.45;;
37267;SDS011;23154;52.542;13.362;2023-04-28T06:10:40;10.52;;;2.90;;
37267;SDS011;23154;52.542;13.362;2023-04-28T06:13:06;10.27;;;3.15;;
37267;SDS011;23154;52.542;13.362;2023-04-28T06:15:33;13.13;;;3.47;;
37267;SDS011;23154;52.542;13.362;2023-04-28T06:17:59;10.05;;;3.08;;
37267;SDS011;23154;52.542;13.362;2023-04-28T06:20:26;9.75;;;3.00;;
37267;SDS011;23154;52.542;13.362;2023-04-28T06:22:52;9.25;;;3.08;;
37267;SDS011;23154;52.542;13.362;2023-04-28T06:25:18;10.07;;;3.22;;
37267;SDS011;23154;52.542;13.362;2023-04-28T06:27:44;12.00;;;3.50;;
37267;SDS011;23154;52.542;13.362;2023-04-28T06:30:15;11.10;;;3.40;;
37267;SDS011;23154;52.542;13.362;2023-04-28T06:32:43;9.10;;;3.05;;
37267;SDS011;23154;52.542;13.362;2023-04-28T06:35:09;11.23;;;3.47;;
37267;SDS011;23154;52.542;13.362;2023-04-28T06:37:35;10.45;;;3.33;;
37267;SDS011;23154;52.542;13.362;2023-04-28T06:40:01;12.57;;;3.50;;
37267;SDS011;23154;52.542;13.362;2023-04-28T06:42:27;17.95;;;5.00;;
37267;SDS011;23154;52.542;13.362;2023-04-28T06:44:53;12.82;;;3.50;;
37267;SDS011;23154;52.542;13.362;2023-04-28T06:47:19;8.73;;;3.42;;
37267;SDS011;23154;52.542;13.362;2023-04-28T06:49:45;12.55;;;4.25;;
37267;SDS011;23154;52.542;13.362;2023-04-28T06:52:14;13.75;;;3.70;;
37267;SDS011;23154;52.542;13.362;2023-04-28T06:54:40;8.52;;;3.45;;
37267;SDS011;23154;52.542;13.362;2023-04-28T06:57:06;11.18;;;3.70;;
37267;SDS011;23154;52.542;13.362;2023-04-28T06:59:32;10.63;;;3.92;;
37267;SDS011;23154;52.542;13.362;2023-04-28T07:01:58;14.95;;;3.75;;
37267;SDS011;23154;52.542;13.362;2023-04-28T07:04:25;10.82;;;3.45;;
37267;SDS011;23154;52.542;13.362;2023-04-28T07:06:51;9.50;;;3.40;;
37267;SDS011;23154;52.542;13.362;2023-04-28T07:09:17;10.15;;;3.90;;
37267;SDS011;23154;52.542;13.362;2023-04-28T07:11:43;11.25;;;3.65;;
37267;SDS011;23154;52.542;13.362;2023-04-28T07:14:09;10.68;;;4.07;;
37267;SDS011;23154;52.542;13.362;2023-04-28T07:16:35;12.77;;;3.40;;
37267;SDS011;23154;52.542;13.362;2023-04-28T07:19:01;9.75;;;3.40;;
37267;SDS011;23154;52.542;13.362;2023-04-28T07:21:27;9.40;;;3.30;;
37267;SDS011;23154;52.542;13.362;2023-04-28T07:23:53;12.80;;;3.30;;
37267;SDS011;23154;52.542;13.362;2023-04-28T07:26:22;10.00;;;3.53;;
37267;SDS011;23154;52.542;13.362;2023-04-28T07:28:48;8.43;;;3.05;;
37267;SDS011;23154;52.542;13.362;2023-04-28T07:31:15;12.65;;;3.53;;
37267;SDS011;23154;52.542;13.362;2023-04-28T07:33:41;10.75;;;3.10;;
37267;SDS011;23154;52.542;13.362;2023-04-28T07:36:07;12.80;;;3.47;;
37267;SDS011;23154;52.542;13.362;2023-04-28T07:38:34;8.70;;;3.20;;
37267;SDS011;23154;52.542;13.362;2023-04-28T07:41:01;10.00;;;3.20;;
37267;SDS011;23154;52.542;13.362;2023-04-28T07:43:27;12.35;;;3.15;;
37267;SDS011;23154;52.542;13.362;2023-04-28T07:45:53;11.60;;;3.17;;
37267;SDS011;23154;52.542;13.362;2023-04-28T07:48:19;13.48;;;3.40;;
37267;SDS011;23154;52.542;13.362;2023-04-28T07:50:46;8.60;;;2.60;;
37267;SDS011;23154;52.542;13.362;2023-04-28T07:53:12;9.48;;;3.38;;
37267;SDS011;23154;52.542;13.362;2023-04-28T07:55:38;9.25;;;3.00;;
37267;SDS011;23154;52.542;13.362;2023-04-28T07:58:08;9.38;;;3.35;;
37267;SDS011;23154;52.542;13.362;2023-04-28T08:00:35;11.82;;;3.53;;
37267;SDS011;23154;52.542;13.362;2023-04-28T08:03:01;11.18;;;3.30;;
37267;SDS011;23154;52.542;13.362;2023-04-28T08:05:27;10.20;;;3.17;;
37267;SDS011;23154;52.542;13.362;2023-04-28T08:07:53;7.90;;;3.00;;
37267;SDS011;23154;52.542;13.362;2023-04-28T08:10:19;8.63;;;3.15;;
37267;SDS011;23154;52.542;13.362;2023-04-28T08:12:45;8.55;;;3.03;;
37267;SDS011;23154;52.542;13.362;2023-04-28T08:15:11;13.43;;;3.80;;
37267;SDS011;23154;52.542;13.362;2023-04-28T08:17:37;11.75;;;3.10;;
37267;SDS011;23154;52.542;13.362;2023-04-28T08:20:03;8.77;;;3.00;;
37267;SDS011;23154;52.542;13.362;2023-04-28T08:22:33;8.32;;;2.92;;
37267;SDS011;23154;52.542;13.362;2023-04-28T08:24:59;9.00;;;3.03;;
37267;SDS011;23154;52.542;13.362;2023-04-28T08:27:25;9.18;;;3.13;;
37267;SDS011;23154;52.542;13.362;2023-04-28T08:29:51;14.45;;;4.75;;
37267;SDS011;23154;52.542;13.362;2023-04-28T08:32:17;11.38;;;3.17;;
37267;SDS011;23154;52.542;13.362;2023-04-28T08:34:43;11.70;;;2.80;;
37267;SDS011;23154;52.542;13.362;2023-04-28T08:37:09;10.02;;;3.20;;
37267;SDS011;23154;52.542;13.362;2023-04-28T08:39:35;11.43;;;3.80;;
37267;SDS011;23154;52.542;13.362;2023-04-28T08:42:04;10.10;;;3.47;;
37267;SDS011;23154;52.542;13.362;2023-04-28T08:44:37;13.38;;;4.00;;
37267;SDS011;23154;52.542;13.362;2023-04-28T08:47:10;10.10;;;2.97;;
37267;SDS011;23154;52.542;13.362;2023-04-28T08:49:37;8.57;;;2.90;;
37267;SDS011;23154;52.542;13.362;2023-04-28T08:52:05;10.35;;;3.45;;
37267;SDS011;23154;52.542;13.362;2023-04-28T08:54:34;15.65;;;5.40;;
37267;SDS011;23154;52.542;13.362;2023-04-28T08:57:01;13.65;;;5.82;;
37267;SDS011;23154;52.542;13.362;2023-04-28T08:59:30;11.73;;;5.60;;
37267;SDS011;23154;52.542;13.362;2023-04-28T09:01:56;12.60;;;5.70;;
37267;SDS011;23154;52.542;13.362;2023-04-28T09:04:22;9.80;;;5.03;;
37267;SDS011;23154;52.542;13.362;2023-04-28T09:06:48;11.80;;;5.03;;
37267;SDS011;23154;52.542;13.362;2023-04-28T09:11:56;12.73;;;4.63;;
37267;SDS011;23154;52.542;13.362;2023-04-28T09:14:26;15.23;;;5.15;;
37267;SDS011;23154;52.542;13.362;2023-04-28T09:16:53;12.88;;;4.88;;
37267;SDS011;23154;52.542;13.362;2023-04-28T09:19:19;13.10;;;5.43;;
37267;SDS011;23154;52.542;13.362;2023-04-28T09:21:46;13.70;;;4.97;;
37267;SDS011;23154;52.542;13.362;2023-04-28T09:24:26;13.63;;;4.20;;
37267;SDS011;23154;52.542;13.362;2023-04-28T09:26:53;12.75;;;3.85;;
37267;SDS011;23154;52.542;13.362;2023-04-28T09:29:19;12.20;;;4.07;;
37267;SDS011;23154;52.542;13.362;2023-04-28T09:31:45;11.68;;;3.70;;
37267;SDS011;23154;52.542;13.362;2023-04-28T09:34:11;12.07;;;3.47;;
37267;SDS011;23154;52.542;13.362;2023-04-28T09:36:37;10.95;;;3.70;;
37267;SDS011;23154;52.542;13.362;2023-04-28T09:39:04;9.27;;;3.50;;
37267;SDS011;23154;52.542;13.362;2023-04-28T09:41:42;11.27;;;3.85;;
37267;SDS011;23154;52.542;13.362;2023-04-28T09:44:16;14.52;;;4.10;;
37267;SDS011;23154;52.542;13.362;2023-04-28T09:46:43;11.68;;;4.10;;
37267;SDS011;23154;52.542;13.362;2023-04-28T09:49:09;13.60;;;4.22;;
37267;SDS011;23154;52.542;13.362;2023-04-28T09:51:35;13.57;;;4.35;;
37267;SDS011;23154;52.542;13.362;2023-04-28T09:54:02;14.10;;;3.92;;
37267;SDS011;23154;52.542;13.362;2023-04-28T09:56:28;14.82;;;3.83;;
37267;SDS011;23154;52.542;13.362;2023-04-28T09:58:58;13.68;;;4.28;;
37267;SDS011;23154;52.542;13.362;2023-04-28T10:01:26;11.45;;;4.05;;
37267;SDS011;23154;52.542;13.362;2023-04-28T10:03:52;13.70;;;4.50;;
37267;SDS011;23154;52.542;13.362;2023-04-28T10:06:20;11.05;;;4.20;;
37267;SDS011;23154;52.542;13.362;2023-04-28T10:08:47;15.73;;;4.22;;
37267;SDS011;23154;52.542;13.362;2023-04-28T10:11:14;10.88;;;3.72;;
37267;SDS011;23154;52.542;13.362;2023-04-28T10:13:41;12.38;;;3.95;;
37267;SDS011;23154;52.542;13.362;2023-04-28T10:16:11;13.27;;;3.83;;
37267;SDS011;23154;52.542;13.362;2023-04-28T10:18:38;13.25;;;3.92;;
37267;SDS011;23154;52.542;13.362;2023-04-28T10:21:05;11.90;;;3.47;;
37267;SDS011;23154;52.542;13.362;2023-04-28T10:23:41;16.98;;;4.20;;
37267;SDS011;23154;52.542;13.362;2023-04-28T10:26:11;10.13;;;3.67;;
37267;SDS011;23154;52.542;13.362;2023-04-28T10:28:44;10.73;;;3.92;;
37267;SDS011;23154;52.542;13.362;2023-04-28T10:31:12;13.55;;;4.50;;
37267;SDS011;23154;52.542;13.362;2023-04-28T10:33:38;13.10;;;3.97;;
37267;SDS011;23154;52.542;13.362;2023-04-28T10:36:05;10.85;;;4.40;;
37267;SDS011;23154;52.542;13.362;2023-04-28T10:38:32;13.80;;;4.03;;
37267;SDS011;23154;52.542;13.362;2023-04-28T10:40:58;14.18;;;4.32;;
37267;SDS011;23154;52.542;13.362;2023-04-28T10:48:20;12.65;;;4.25;;
37267;SDS011;23154;52.542;13.362;2023-04-28T10:58:35;16.70;;;4.80;;
37267;SDS011;23154;52.542;13.362;2023-04-28T11:06:23;11.35;;;3.50;;
37267;SDS011;23154;52.542;13.362;2023-04-28T11:08:52;16.02;;;3.83;;
37267;SDS011;23154;52.542;13.362;2023-04-28T11:11:20;9.25;;;3.80;;
37267;SDS011;23154;52.542;13.362;2023-04-28T11:13:46;18.77;;;4.25;;
37267;SDS011;23154;52.542;13.362;2023-04-28T11:16:13;13.80;;;4.03;;
37267;SDS011;23154;52.542;13.362;2023-04-28T11:21:10;11.55;;;3.70;;
37267;SDS011;23154;52.542;13.362;2023-04-28T11:23:36;12.35;;;3.55;;
37267;SDS011;23154;52.542;13.362;2023-04-28T11:26:04;10.70;;;3.47;;
37267;SDS011;23154;52.542;13.362;2023-04-28T11:28:30;12.65;;;3.80;;
37267;SDS011;23154;52.542;13.362;2023-04-28T11:31:15;14.95;;;3.60;;
37267;SDS011;23154;52.542;13.362;2023-04-28T11:33:48;12.27;;;3.22;;
37267;SDS011;23154;52.542;13.362;2023-04-28T11:36:28;15.60;;;3.70;;
37267;SDS011;23154;52.542;13.362;2023-04-28T11:38:55;13.52;;;3.83;;
37267;SDS011;23154;52.542;13.362;2023-04-28T11:41:22;13.13;;;3.90;;
37267;SDS011;23154;52.542;13.362;2023-04-28T11:43:48;11.48;;;3.60;;
37267;SDS011;23154;52.542;13.362;2023-04-28T11:46:18;8.97;;;3.27;;
37267;SDS011;23154;52.542;13.362;2023-04-28T11:48:47;12.65;;;3.85;;
37267;SDS011;23154;52.542;13.362;2023-04-28T11:51:29;12.10;;;3.90;;
37267;SDS011;23154;52.542;13.362;2023-04-28T11:53:56;11.52;;;3.60;;
37267;SDS011;23154;52.542;13.362;2023-04-28T11:56:22;11.73;;;3.47;;
37267;SDS011;23154;52.542;13.362;2023-04-28T12:01:28;14.98;;;3.72;;
37267;SDS011;23154;52.542;13.362;2023-04-28T12:03:55;11.45;;;3.90;;
37267;SDS011;23154;52.542;13.362;2023-04-28T12:06:21;10.80;;;3.50;;
37267;SDS011;23154;52.542;13.362;2023-04-28T12:08:48;15.57;;;4.05;;
37267;SDS011;23154;52.542;13.362;2023-04-28T12:11:15;10.38;;;3.28;;
37267;SDS011;23154;52.542;13.362;2023-04-28T12:13:42;12.90;;;3.78;;
37267;SDS011;23154;52.542;13.362;2023-04-28T12:16:08;12.27;;;3.78;;
37267;SDS011;23154;52.542;13.362;2023-04-28T12:18:34;10.80;;;3.65;;
37267;SDS011;23154;52.542;13.362;2023-04-28T12:21:01;11.52;;;3.55;;
37267;SDS011;23154;52.542;13.362;2023-04-28T12:23:30;13.88;;;4.38;;
37267;SDS011;23154;52.542;13.362;2023-04-28T12:25:57;14.70;;;4.40;;
37267;SDS011;23154;52.542;13.362;2023-04-28T12:28:23;14.07;;;4.03;;
37267;SDS011;23154;52.542;13.362;2023-04-28T12:30:50;16.73;;;4.00;;
37267;SDS011;23154;52.542;13.362;2023-04-28T12:33:22;15.05;;;4.10;;
37267;SDS011;23154;52.542;13.362;2023-04-28T12:35:49;16.75;;;4.38;;
37267;SDS011;23154;52.542;13.362;2023-04-28T12:38:15;14.23;;;3.83;;
37267;SDS011;23154;52.542;13.362;2023-04-28T12:40:41;12.80;;;4.38;;
37267;SDS011;23154;52.542;13.362;2023-04-28T12:43:07;13.30;;;4.60;;
37267;SDS011;23154;52.542;13.362;2023-04-28T12:45:34;11.80;;;3.97;;
37267;SDS011;23154;52.542;13.362;2023-04-28T12:48:00;13.02;;;3.85;;
37267;SDS011;23154;52.542;13.362;2023-04-28T12:50:26;15.25;;;4.22;;
37267;SDS011;23154;52.542;13.362;2023-04-28T12:52:53;12.88;;;3.85;;
37267;SDS011;23154;52.542;13.362;2023-04-28T12:55:20;10.90;;;3.95;;
37267;SDS011;23154;52.542;13.362;2023-04-28T12:57:46;12.70;;;3.75;;
37267;SDS011;23154;52.542;13.362;2023-04-28T13:00:13;16.23;;;4.50;;
37267;SDS011;23154;52.542;13.362;2023-04-28T13:02:40;14.20;;;4.32;;
37267;SDS011;23154;52.542;13.362;2023-04-28T13:05:06;12.23;;;3.47;;
37267;SDS011;23154;52.542;13.362;2023-04-28T13:07:33;15.60;;;6.65;;
37267;SDS011;23154;52.542;13.362;2023-04-28T13:09:59;17.48;;;7.07;;
37267;SDS011;23154;52.542;13.362;2023-04-28T13:12:25;15.27;;;7.22;;
37267;SDS011;23154;52.542;13.362;2023-04-28T13:14:51;15.82;;;7.47;;
37267;SDS011;23154;52.542;13.362;2023-04-28T13:17:17;16.02;;;8.02;;
37267;SDS011;23154;52.542;13.362;2023-04-28T13:19:43;15.30;;;7.68;;
37267;SDS011;23154;52.542;13.362;2023-04-28T13:22:10;15.18;;;7.22;;
37267;SDS011;23154;52.542;13.362;2023-04-28T13:24:38;15.52;;;8.35;;
37267;SDS011;23154;52.542;13.362;2023-04-28T13:27:04;17.88;;;9.30;;
37267;SDS011;23154;52.542;13.362;2023-04-28T13:29:33;17.02;;;8.85;;
37267;SDS011;23154;52.542;13.362;2023-04-28T13:32:01;16.25;;;8.80;;
37267;SDS011;23154;52.542;13.362;2023-04-28T13:34:27;15.55;;;8.98;;
37267;SDS011;23154;52.542;13.362;2023-04-28T13:36:53;16.70;;;9.15;;
37267;SDS011;23154;52.542;13.362;2023-04-28T13:39:20;17.55;;;10.00;;
37267;SDS011;23154;52.542;13.362;2023-04-28T13:41:46;16.42;;;9.93;;
37267;SDS011;23154;52.542;13.362;2023-04-28T13:44:13;17.05;;;9.57;;
37267;SDS011;23154;52.542;13.362;2023-04-28T13:46:39;19.98;;;10.20;;
37267;SDS011;23154;52.542;13.362;2023-04-28T13:49:06;16.35;;;10.57;;
37267;SDS011;23154;52.542;13.362;2023-04-28T13:51:32;21.95;;;10.85;;
37267;SDS011;23154;52.542;13.362;2023-04-28T13:53:58;16.80;;;9.85;;
37267;SDS011;23154;52.542;13.362;2023-04-28T13:56:24;18.33;;;9.55;;
37267;SDS011;23154;52.542;13.362;2023-04-28T13:58:51;15.88;;;9.93;;
37267;SDS011;23154;52.542;13.362;2023-04-28T14:01:17;21.85;;;10.80;;
37267;SDS011;23154;52.542;13.362;2023-04-28T14:03:43;16.33;;;10.02;;
37267;SDS011;23154;52.542;13.362;2023-04-28T14:06:09;16.05;;;8.77;;
37267;SDS011;23154;52.542;13.362;2023-04-28T14:08:35;18.65;;;11.05;;
37267;SDS011;23154;52.542;13.362;2023-04-28T14:11:01;17.02;;;10.25;;
37267;SDS011;23154;52.542;13.362;2023-04-28T14:13:27;18.20;;;10.15;;
37267;SDS011;23154;52.542;13.362;2023-04-28T14:15:54;16.23;;;9.35;;
37267;SDS011;23154;52.542;13.362;2023-04-28T14:18:21;18.52;;;9.68;;
37267;SDS011;23154;52.542;13.362;2023-04-28T14:20:47;16.70;;;8.68;;
37267;SDS011;23154;52.542;13.362;2023-04-28T14:23:14;17.83;;;9.98;;
37267;SDS011;23154;52.542;13.362;2023-04-28T14:25:40;15.57;;;8.93;;
37267;SDS011;23154;52.542;13.362;2023-04-28T14:28:06;19.52;;;10.38;;
37267;SDS011;23154;52.542;13.362;2023-04-28T14:30:32;18.08;;;8.95;;
37267;SDS011;23154;52.542;13.362;2023-04-28T14:32:58;17.77;;;9.63;;
37267;SDS011;23154;52.542;13.362;2023-04-28T14:35:25;17.50;;;9.63;;
37267;SDS011;23154;52.542;13.362;2023-04-28T14:37:51;18.02;;;9.90;;
37267;SDS011;23154;52.542;13.362;2023-04-28T14:40:18;16.45;;;9.73;;
37267;SDS011;23154;52.542;13.362;2023-04-28T14:42:44;15.38;;;9.00;;
37267;SDS011;23154;52.542;13.362;2023-04-28T14:45:11;16.73;;;10.00;;
37267;SDS011;23154;52.542;13.362;2023-04-28T14:47:37;16.77;;;10.05;;